Time;durP1;ratioP1;P1;durP2;ratioP2;P2;SDS_P1;SDS_P2;PMS_P1;PMS_P2;Temp;Humidity;BMP_temperature;BMP_pressure;BME280_temperature;BME280_humidity;BME280_pressure;Samples;Min_cycle;Max_cycle;Signal;HPM_P1;HPM_P2
2021/07/03 00:02:18;;;;;;;46.67;34.20;;;16.10;88.20;;;;;;4943101;28;20045;-87
2021/07/03 00:04:44;;;;;;;42.05;32.28;;;16.10;88.20;;;;;;4975786;28;20034;-87
2021/07/03 00:07:10;;;;;;;46.10;32.65;;;16.10;88.20;;;;;;4993062;28;20027;-86
2021/07/03 00:09:37;;;;;;;46.25;33.70;;;16.10;88.20;;;;;;4959190;28;20117;-88
2021/07/03 00:12:07;;;;;;;44.85;33.35;;;16.10;88.20;;;;;;4975540;28;20030;-87
2021/07/03 00:14:34;;;;;;;45.25;33.78;;;16.10;88.20;;;;;;4992584;28;20035;-87
2021/07/03 00:17:00;;;;;;;45.67;33.88;;;16.00;88.10;;;;;;4943960;28;20038;-86
2021/07/03 00:19:26;;;;;;;44.25;33.17;;;16.00;88.10;;;;;;4958967;28;20034;-88
2021/07/03 00:21:52;;;;;;;44.85;33.03;;;16.00;88.10;;;;;;4959708;28;20023;-87
2021/07/03 00:24:18;;;;;;;42.00;32.42;;;16.00;88.10;;;;;;4958849;28;20121;-87
2021/07/03 00:26:43;;;;;;;49.25;32.58;;;16.00;88.10;;;;;;4959438;28;20041;-89
2021/07/03 00:29:09;;;;;;;43.85;32.28;;;16.00;88.10;;;;;;4959064;28;20034;-88
2021/07/03 00:31:35;;;;;;;44.15;33.03;;;16.00;88.10;;;;;;4991314;28;20034;-87
2021/07/03 00:34:01;;;;;;;47.85;33.17;;;16.00;88.10;;;;;;4975200;28;20094;-88
2021/07/03 00:36:27;;;;;;;44.72;31.08;;;16.00;88.10;;;;;;4976887;28;20026;-87
2021/07/03 00:38:52;;;;;;;48.40;32.92;;;16.00;88.10;;;;;;4978936;28;20023;-88
2021/07/03 00:41:18;;;;;;;43.50;30.20;;;16.00;88.10;;;;;;4958677;28;20490;-86
2021/07/03 00:43:44;;;;;;;50.15;33.38;;;16.00;88.10;;;;;;4960248;28;20039;-87
2021/07/03 00:46:09;;;;;;;46.95;32.88;;;15.90;88.00;;;;;;4959077;28;20034;-86
2021/07/03 00:48:35;;;;;;;45.95;33.00;;;15.80;88.10;;;;;;4958530;28;20038;-87
2021/07/03 00:51:01;;;;;;;47.53;31.88;;;15.80;88.30;;;;;;4959187;28;20037;-88
2021/07/03 00:53:27;;;;;;;42.30;31.30;;;15.80;88.40;;;;;;4958881;28;20030;-88
2021/07/03 00:55:53;;;;;;;42.55;31.45;;;15.80;88.50;;;;;;4992311;28;20106;-87
2021/07/03 00:58:19;;;;;;;43.90;31.63;;;15.80;88.40;;;;;;4972986;28;20037;-85
2021/07/03 01:00:45;;;;;;;42.42;31.05;;;15.80;88.30;;;;;;4991359;28;20034;-87
2021/07/03 01:03:11;;;;;;;46.42;31.35;;;15.90;88.20;;;;;;4974708;28;20386;-87
2021/07/03 01:05:36;;;;;;;42.63;30.90;;;15.90;88.00;;;;;;4973262;28;20031;-87
2021/07/03 01:08:02;;;;;;;41.45;31.02;;;15.80;87.90;;;;;;4974789;28;20089;-88
2021/07/03 01:10:30;;;;;;;44.00;30.85;;;15.80;88.20;;;;;;4991822;28;20385;-87
2021/07/03 01:12:56;;;;;;;41.65;30.92;;;15.80;88.30;;;;;;4959236;28;20026;-88
2021/07/03 01:15:23;;;;;;;42.03;30.52;;;15.80;88.30;;;;;;4943011;28;20117;-86
2021/07/03 01:17:50;;;;;;;44.22;31.45;;;15.80;88.30;;;;;;4958669;28;20486;-87
2021/07/03 01:20:17;;;;;;;39.30;29.23;;;15.70;88.20;;;;;;4975225;28;20076;-87
2021/07/03 01:22:46;;;;;;;43.88;31.92;;;15.70;88.30;;;;;;4991471;28;20057;-87
2021/07/03 01:25:14;;;;;;;41.88;30.90;;;15.70;88.30;;;;;;4992267;28;20039;-87
2021/07/03 01:27:40;;;;;;;46.97;31.38;;;15.60;88.40;;;;;;4974294;28;20470;-86
2021/07/03 01:30:10;;;;;;;48.13;31.33;;;15.60;88.50;;;;;;4992293;28;20034;-87
2021/07/03 01:32:35;;;;;;;44.28;31.58;;;15.60;88.60;;;;;;4977575;28;20150;-85
2021/07/03 01:35:02;;;;;;;42.78;31.00;;;15.60;88.60;;;;;;4995801;28;20485;-85
2021/07/03 01:37:27;;;;;;;46.22;33.53;;;15.50;88.60;;;;;;4945555;28;20033;-86
2021/07/03 01:39:53;;;;;;;44.03;32.10;;;15.40;88.70;;;;;;4995337;28;20466;-86
2021/07/03 01:42:19;;;;;;;46.15;31.55;;;15.30;88.80;;;;;;4962752;28;20034;-87
2021/07/03 01:44:46;;;;;;;42.03;30.02;;;15.30;89.10;;;;;;4994950;28;20625;-87
2021/07/03 01:47:12;;;;;;;42.67;29.88;;;15.30;89.20;;;;;;4996178;28;20146;-87
2021/07/03 01:49:45;;;;;;;41.22;30.27;;;15.40;89.30;;;;;;4963132;28;20081;-88
2021/07/03 01:52:15;;;;;;;41.58;30.85;;;15.40;89.20;;;;;;4997732;28;20073;-86
2021/07/03 01:54:41;;;;;;;42.60;30.42;;;15.30;89.00;;;;;;4982287;28;20027;-86
2021/07/03 01:57:07;;;;;;;40.13;29.90;;;15.30;89.00;;;;;;4969141;28;20085;-87
2021/07/03 01:59:33;;;;;;;43.65;29.88;;;15.20;89.10;;;;;;4967485;28;20030;-86
2021/07/03 02:02:02;;;;;;;40.47;28.85;;;15.20;89.30;;;;;;4980540;28;20039;-86
2021/07/03 02:04:29;;;;;;;41.42;30.85;;;15.20;89.40;;;;;;4977467;28;20031;-85
2021/07/03 02:06:55;;;;;;;45.45;31.05;;;15.20;89.30;;;;;;4961510;28;20038;-87
2021/07/03 02:09:23;;;;;;;41.33;31.10;;;15.10;89.30;;;;;;4977613;28;20038;-87
2021/07/03 02:11:49;;;;;;;42.33;30.45;;;15.10;89.40;;;;;;4977013;28;20101;-88
2021/07/03 02:14:15;;;;;;;42.65;31.33;;;15.00;89.50;;;;;;4977932;28;20372;-87
2021/07/03 02:16:41;;;;;;;42.80;29.38;;;15.10;89.80;;;;;;4977535;28;20081;-86
2021/07/03 02:19:08;;;;;;;40.55;29.25;;;15.00;89.70;;;;;;4978130;28;20034;-87
2021/07/03 02:21:35;;;;;;;39.45;28.55;;;15.10;89.60;;;;;;4978988;28;20030;-87
2021/07/03 02:24:01;;;;;;;39.25;28.65;;;15.10;89.60;;;;;;4999430;28;20100;-87
2021/07/03 02:26:28;;;;;;;39.05;29.10;;;15.20;89.50;;;;;;4980702;28;20023;-86
2021/07/03 02:28:54;;;;;;;40.13;29.83;;;15.10;89.30;;;;;;4998071;28;20026;-86
2021/07/03 02:31:20;;;;;;;44.17;32.00;;;15.10;89.30;;;;;;4997806;28;20042;-86
2021/07/03 02:33:47;;;;;;;42.67;31.40;;;14.80;89.30;;;;;;4980401;28;20074;-86
2021/07/03 02:36:13;;;;;;;42.60;30.48;;;14.80;89.60;;;;;;4980859;28;20034;-87
2021/07/03 02:38:39;;;;;;;43.88;30.58;;;14.70;89.80;;;;;;4998982;28;20049;-86
2021/07/03 02:41:05;;;;;;;41.97;29.95;;;14.80;90.00;;;;;;4964034;28;20062;-86
2021/07/03 02:43:31;;;;;;;42.78;29.85;;;14.80;90.00;;;;;;4962737;28;20522;-86
2021/07/03 02:45:57;;;;;;;43.35;29.50;;;14.80;90.00;;;;;;4976673;28;20027;-86
2021/07/03 02:48:22;;;;;;;43.30;30.42;;;14.80;89.80;;;;;;4994465;28;20134;-86
2021/07/03 02:50:48;;;;;;;40.13;29.02;;;14.80;89.90;;;;;;4960298;28;20030;-86
2021/07/03 02:53:15;;;;;;;39.00;28.58;;;14.80;89.90;;;;;;4961171;28;20038;-87
2021/07/03 02:55:40;;;;;;;39.05;27.77;;;14.80;89.90;;;;;;4976480;28;20226;-87
2021/07/03 02:58:06;;;;;;;44.05;31.13;;;14.80;89.90;;;;;;4976415;28;20026;-87
2021/07/03 03:00:32;;;;;;;44.60;31.45;;;14.90;89.80;;;;;;4994625;28;20038;-86
2021/07/03 03:02:58;;;;;;;47.20;32.35;;;14.80;89.50;;;;;;4975956;28;20099;-87
2021/07/03 03:05:23;;;;;;;44.92;31.60;;;14.70;89.60;;;;;;4976456;28;20042;-86
2021/07/03 03:07:49;;;;;;;45.70;32.08;;;14.60;89.80;;;;;;4959608;28;20457;-87
2021/07/03 03:10:18;;;;;;;43.35;32.25;;;14.50;90.00;;;;;;4977180;28;20034;-88
2021/07/03 03:12:44;;;;;;;48.97;32.85;;;14.40;90.00;;;;;;4976615;28;20113;-87
2021/07/03 03:15:11;;;;;;;46.95;33.08;;;14.40;90.10;;;;;;4977314;28;20018;-87
2021/07/03 03:17:37;;;;;;;51.25;33.30;;;14.40;90.20;;;;;;4960882;28;20164;-85
2021/07/03 03:20:09;;;;;;;48.05;33.53;;;14.30;90.30;;;;;;4977259;28;20065;-86
2021/07/03 03:22:35;;;;;;;55.97;37.25;;;14.20;90.30;;;;;;4976587;28;20109;-87
2021/07/03 03:25:01;;;;;;;52.40;36.30;;;14.20;90.40;;;;;;4959902;28;20255;-87
2021/07/03 03:27:26;;;;;;;51.83;35.38;;;14.20;90.40;;;;;;4960308;28;20034;-87
2021/07/03 03:29:52;;;;;;;51.88;34.30;;;14.20;90.50;;;;;;4976081;28;20043;-86
2021/07/03 03:32:18;;;;;;;53.33;34.88;;;14.20;90.50;;;;;;4975987;28;20053;-87
2021/07/03 03:34:44;;;;;;;54.45;36.55;;;14.30;90.50;;;;;;4976521;28;20031;-87
2021/07/03 03:37:09;;;;;;;52.92;34.33;;;14.30;90.50;;;;;;4976882;28;20031;-86
2021/07/03 03:39:35;;;;;;;52.72;35.97;;;14.30;90.50;;;;;;4993480;28;20093;-87
2021/07/03 03:42:00;;;;;;;54.35;35.53;;;14.40;90.50;;;;;;4976221;28;20049;-87
2021/07/03 03:44:26;;;;;;;57.08;36.05;;;14.30;90.50;;;;;;4964120;28;20537;-86
2021/07/03 03:46:52;;;;;;;51.08;35.72;;;14.50;90.50;;;;;;4954207;28;20532;-87
2021/07/03 03:49:21;;;;;;;52.67;37.42;;;14.50;90.40;;;;;;4961875;28;20035;-87
2021/07/03 03:51:48;;;;;;;49.55;35.28;;;14.50;90.40;;;;;;4963403;28;20542;-85
2021/07/03 03:54:15;;;;;;;51.35;34.83;;;14.50;90.30;;;;;;4976080;28;20034;-86
2021/07/03 03:56:40;;;;;;;51.25;34.90;;;14.60;90.30;;;;;;4975876;28;20037;-85
2021/07/03 03:59:07;;;;;;;48.10;32.70;;;14.70;90.20;;;;;;4975734;28;20229;-86
2021/07/03 04:01:33;;;;;;;48.25;31.15;;;14.90;90.10;;;;;;4959667;28;20034;-87
2021/07/03 04:03:58;;;;;;;46.67;32.58;;;15.20;89.70;;;;;;4975090;28;20030;-87
2021/07/03 04:06:24;;;;;;;42.10;30.23;;;15.60;89.00;;;;;;4989621;28;20034;-88
2021/07/03 04:08:49;;;;;;;44.80;30.88;;;15.60;88.40;;;;;;4963089;28;20386;-85
2021/07/03 04:11:15;;;;;;;43.85;30.90;;;15.70;88.00;;;;;;4975458;28;20036;-87
2021/07/03 04:13:41;;;;;;;43.15;27.92;;;15.90;87.70;;;;;;4959972;28;20482;-86
2021/07/03 04:16:06;;;;;;;37.05;28.60;;;16.00;87.20;;;;;;4942848;28;20026;-87
2021/07/03 04:18:32;;;;;;;40.55;28.63;;;16.00;86.90;;;;;;4966319;28;20058;-87
2021/07/03 04:20:58;;;;;;;41.83;28.58;;;16.20;86.50;;;;;;4970776;28;20050;-86
2021/07/03 04:23:23;;;;;;;40.42;30.13;;;16.40;85.90;;;;;;4983393;28;20034;-87
2021/07/03 04:25:50;;;;;;;37.28;27.88;;;16.60;85.20;;;;;;4981136;28;20026;-86
2021/07/03 04:28:15;;;;;;;39.28;27.88;;;17.00;84.20;;;;;;5012613;28;20029;-87
2021/07/03 04:30:41;;;;;;;36.78;27.90;;;17.70;82.90;;;;;;4963257;28;20034;-87
2021/07/03 04:33:07;;;;;;;34.60;26.08;;;18.90;79.60;;;;;;4978339;28;20054;-84
2021/07/03 04:35:33;;;;;;;38.65;27.50;;;19.30;77.30;;;;;;4998963;28;20018;-88
2021/07/03 04:37:59;;;;;;;35.17;26.45;;;19.20;76.80;;;;;;4987696;28;20505;-87
2021/07/03 04:40:24;;;;;;;35.28;25.88;;;18.90;77.20;;;;;;4985633;28;20033;-86
2021/07/03 04:42:50;;;;;;;32.53;24.75;;;19.00;77.60;;;;;;5004475;28;20042;-86
2021/07/03 04:45:16;;;;;;;34.15;25.02;;;19.80;75.80;;;;;;4985685;28;20058;-87
2021/07/03 04:47:42;;;;;;;31.13;23.38;;;20.60;73.80;;;;;;4989605;28;20049;-87
2021/07/03 04:50:08;;;;;;;30.50;23.25;;;20.60;72.60;;;;;;5012253;28;20018;-88
2021/07/03 04:52:35;;;;;;;31.60;23.30;;;20.30;73.00;;;;;;4997784;28;20090;-87
2021/07/03 04:55:02;;;;;;;29.25;22.30;;;19.90;73.90;;;;;;4992781;28;20049;-87
2021/07/03 04:57:27;;;;;;;27.25;22.88;;;19.90;74.30;;;;;;5008540;28;20037;-87
2021/07/03 04:59:53;;;;;;;32.53;24.13;;;20.30;73.50;;;;;;4988800;28;20398;-86
2021/07/03 05:02:19;;;;;;;30.65;23.83;;;20.50;72.80;;;;;;4971052;28;20031;-87
2021/07/03 05:04:45;;;;;;;29.80;23.30;;;20.60;72.40;;;;;;4995401;28;20038;-87
2021/07/03 05:07:10;;;;;;;33.33;22.77;;;21.20;71.40;;;;;;4994266;28;20034;-89
2021/07/03 05:09:37;;;;;;;30.50;23.02;;;21.90;69.80;;;;;;4964172;28;20159;-89
2021/07/03 05:12:03;;;;;;;29.05;23.48;;;22.80;67.80;;;;;;4978535;28;20057;-86
2021/07/03 05:14:29;;;;;;;27.58;21.80;;;23.50;65.50;;;;;;5012056;28;20038;-87
2021/07/03 05:16:55;;;;;;;26.80;21.15;;;23.90;64.60;;;;;;4979560;28;20023;-88
2021/07/03 05:19:21;;;;;;;29.50;20.77;;;23.90;64.30;;;;;;5003045;28;20030;-87
2021/07/03 05:21:47;;;;;;;29.02;21.33;;;24.00;63.20;;;;;;5003868;28;20026;-85
2021/07/03 05:24:12;;;;;;;28.40;20.92;;;24.20;62.70;;;;;;5004168;28;20049;-87
2021/07/03 05:26:38;;;;;;;26.58;21.17;;;24.20;62.40;;;;;;5016812;28;20102;-87
2021/07/03 05:29:04;;;;;;;26.83;22.23;;;24.00;62.70;;;;;;4987944;28;20089;-84
2021/07/03 05:31:31;;;;;;;27.98;22.08;;;23.50;63.20;;;;;;5024596;28;20063;-85
2021/07/03 05:33:57;;;;;;;28.20;21.33;;;23.30;64.00;;;;;;4985613;28;20034;-87
2021/07/03 05:36:23;;;;;;;27.70;19.45;;;23.90;63.20;;;;;;5001288;28;20029;-88
2021/07/03 05:38:49;;;;;;;27.08;20.92;;;24.30;62.30;;;;;;4986168;28;20077;-86
2021/07/03 05:41:17;;;;;;;25.67;19.52;;;24.50;61.40;;;;;;4989195;28;20105;-85
2021/07/03 05:43:43;;;;;;;26.48;19.65;;;24.70;60.80;;;;;;5016525;28;20037;-86
2021/07/03 05:46:11;;;;;;;24.05;19.88;;;24.40;60.90;;;;;;5002922;28;20037;-87
2021/07/03 05:48:39;;;;;;;23.15;18.23;;;24.70;60.70;;;;;;5021721;28;20025;-86
2021/07/03 05:51:05;;;;;;;21.58;18.20;;;25.10;59.60;;;;;;5021285;28;20018;-85
2021/07/03 05:53:31;;;;;;;23.00;17.65;;;25.10;59.20;;;;;;5004892;28;20037;-87
2021/07/03 05:55:57;;;;;;;21.92;17.70;;;25.20;59.40;;;;;;5018334;28;20015;-87
2021/07/03 05:58:23;;;;;;;18.88;15.85;;;24.70;59.40;;;;;;5003712;28;20030;-89
2021/07/03 06:00:49;;;;;;;20.63;15.52;;;24.90;59.90;;;;;;4982068;28;20053;-86
2021/07/03 06:03:14;;;;;;;20.95;15.80;;;25.50;58.60;;;;;;5025334;28;20038;-86
2021/07/03 06:05:40;;;;;;;20.15;15.32;;;25.90;57.50;;;;;;4971498;28;20022;-87
2021/07/03 06:08:06;;;;;;;23.05;16.50;;;26.00;56.90;;;;;;4997358;28;20493;-90
2021/07/03 06:10:31;;;;;;;17.67;14.48;;;26.40;55.80;;;;;;4968025;28;20374;-87
2021/07/03 06:12:57;;;;;;;18.48;15.27;;;26.70;55.40;;;;;;4979427;28;20033;-87
2021/07/03 06:15:23;;;;;;;17.58;14.80;;;26.50;55.80;;;;;;4978807;28;20359;-87
2021/07/03 06:17:49;;;;;;;17.58;14.10;;;27.20;54.70;;;;;;4976500;28;20061;-87
2021/07/03 06:20:15;;;;;;;20.65;14.52;;;27.90;52.90;;;;;;4966812;28;20040;-92
2021/07/03 06:22:41;;;;;;;15.48;13.95;;;28.10;52.70;;;;;;4999981;28;20026;-90
2021/07/03 06:25:09;;;;;;;16.42;12.90;;;28.60;51.30;;;;;;5014667;28;20034;-88
2021/07/03 06:27:37;;;;;;;14.07;12.63;;;28.60;50.80;;;;;;4998719;28;20018;-91
2021/07/03 06:30:04;;;;;;;14.88;12.55;;;28.60;50.60;;;;;;5015170;28;20482;-89
2021/07/03 06:32:29;;;;;;;14.90;12.30;;;28.40;51.00;;;;;;4984151;28;20113;-88
2021/07/03 06:34:55;;;;;;;17.17;12.90;;;28.30;51.30;;;;;;4966689;28;20115;-86
2021/07/03 06:37:21;;;;;;;12.32;10.52;;;28.50;50.90;;;;;;4998052;28;20040;-84
2021/07/03 06:39:46;;;;;;;13.90;11.95;;;28.90;49.80;;;;;;4982744;28;20034;-88
2021/07/03 06:42:12;;;;;;;14.60;12.95;;;29.00;49.20;;;;;;4983801;28;20121;-85
2021/07/03 06:44:38;;;;;;;14.23;10.93;;;29.30;49.10;;;;;;4966736;28;20076;-85
2021/07/03 06:47:05;;;;;;;13.65;10.98;;;29.20;48.30;;;;;;5016533;28;20037;-84
2021/07/03 06:49:31;;;;;;;12.85;10.65;;;29.40;48.40;;;;;;5001293;28;20076;-81
2021/07/03 06:52:00;;;;;;;12.75;10.55;;;29.50;48.30;;;;;;4986401;28;20022;-86
2021/07/03 06:54:25;;;;;;;12.57;11.07;;;29.60;48.10;;;;;;4963232;28;20041;-85
2021/07/03 06:56:57;;;;;;;11.68;9.52;;;30.10;48.00;;;;;;4961716;28;20493;-83
2021/07/03 06:59:24;;;;;;;12.60;9.55;;;30.20;48.10;;;;;;4977944;28;20740;-85
2021/07/03 07:01:50;;;;;;;13.45;10.73;;;30.70;47.50;;;;;;4995373;28;20039;-85
2021/07/03 07:04:17;;;;;;;12.02;9.10;;;30.70;46.20;;;;;;4995249;28;20164;-85
2021/07/03 07:06:43;;;;;;;10.23;8.10;;;30.90;46.20;;;;;;4961846;28;20034;-83
2021/07/03 07:09:09;;;;;;;10.30;9.20;;;30.90;45.40;;;;;;4991503;28;20030;-86
2021/07/03 07:11:34;;;;;;;10.60;8.40;;;30.90;45.90;;;;;;4989037;28;20210;-84
2021/07/03 07:14:02;;;;;;;8.73;7.57;;;30.30;46.10;;;;;;5011255;28;20045;-83
2021/07/03 07:16:28;;;;;;;11.73;9.18;;;29.80;47.10;;;;;;4977498;28;20104;-81
2021/07/03 07:18:53;;;;;;;9.98;8.25;;;29.80;47.20;;;;;;4978293;28;20466;-81
2021/07/03 07:21:19;;;;;;;12.40;8.05;;;29.80;47.30;;;;;;4972176;28;20031;-81
2021/07/03 07:23:44;;;;;;;9.63;7.93;;;30.10;47.20;;;;;;4959978;28;20091;-81
2021/07/03 07:26:10;;;;;;;10.18;7.18;;;30.20;46.30;;;;;;4960050;28;20034;-80
2021/07/03 07:28:36;;;;;;;9.07;8.18;;;30.50;47.40;;;;;;4975731;28;20022;-81
2021/07/03 07:31:02;;;;;;;12.30;8.05;;;30.50;46.20;;;;;;4959360;28;20461;-82
2021/07/03 07:33:27;;;;;;;8.73;7.30;;;30.20;46.00;;;;;;4974760;28;20419;-80
2021/07/03 07:35:53;;;;;;;7.13;6.53;;;30.10;46.80;;;;;;4959480;28;20027;-80
2021/07/03 07:38:19;;;;;;;8.15;7.30;;;30.40;46.10;;;;;;4991726;28;20054;-82
2021/07/03 07:40:44;;;;;;;7.93;6.75;;;30.80;45.50;;;;;;4975277;28;20117;-80
2021/07/03 07:43:10;;;;;;;7.82;7.00;;;31.10;44.60;;;;;;4942543;28;20058;-78
2021/07/03 07:45:36;;;;;;;8.02;7.10;;;31.40;45.00;;;;;;4959129;28;20031;-79
2021/07/03 07:48:01;;;;;;;10.05;7.10;;;31.70;44.50;;;;;;4993709;28;20033;-79
2021/07/03 07:50:27;;;;;;;8.25;6.55;;;31.40;44.10;;;;;;4960427;28;20466;-79
2021/07/03 07:52:53;;;;;;;7.72;6.93;;;31.20;45.30;;;;;;4959323;28;20035;-78
2021/07/03 07:55:18;;;;;;;7.20;6.60;;;31.30;45.30;;;;;;4992676;28;20038;-79
2021/07/03 07:57:44;;;;;;;8.45;6.93;;;31.40;44.30;;;;;;4958796;28;20030;-79
2021/07/03 08:00:10;;;;;;;9.30;7.53;;;31.20;44.50;;;;;;4975425;28;20034;-79
2021/07/03 08:02:36;;;;;;;8.75;7.30;;;31.10;44.20;;;;;;4974795;28;20053;-79
2021/07/03 08:05:02;;;;;;;8.45;6.50;;;30.80;45.20;;;;;;4959454;28;20062;-78
2021/07/03 08:07:28;;;;;;;8.38;5.80;;;30.80;46.30;;;;;;4973916;28;20467;-79
2021/07/03 08:09:53;;;;;;;7.82;6.88;;;31.30;45.70;;;;;;4974789;28;20034;-79
2021/07/03 08:12:19;;;;;;;9.43;5.97;;;31.60;43.80;;;;;;4942163;28;20027;-79
2021/07/03 08:14:44;;;;;;;10.68;6.40;;;31.60;44.70;;;;;;4974354;28;20545;-79
2021/07/03 08:17:10;;;;;;;6.70;6.10;;;31.90;43.70;;;;;;4959274;28;20430;-78
2021/07/03 08:19:38;;;;;;;7.10;5.40;;;31.60;44.20;;;;;;4990791;28;20577;-79
2021/07/03 08:22:03;;;;;;;6.40;5.78;;;31.60;44.20;;;;;;4975141;28;20047;-79
2021/07/03 08:24:29;;;;;;;10.70;7.60;;;31.10;43.90;;;;;;4979218;28;20605;-80
2021/07/03 08:26:55;;;;;;;7.20;6.50;;;31.20;44.00;;;;;;4973030;28;20116;-79
2021/07/03 08:29:20;;;;;;;8.38;6.40;;;31.10;43.90;;;;;;4940593;28;20387;-80
2021/07/03 08:31:46;;;;;;;5.82;5.25;;;31.30;44.50;;;;;;4968570;28;20509;-78
2021/07/03 08:34:12;;;;;;;5.90;5.30;;;31.60;44.60;;;;;;4975165;28;20086;-79
2021/07/03 08:36:38;;;;;;;6.60;5.70;;;32.10;44.10;;;;;;4977509;28;20029;-78
2021/07/03 08:39:03;;;;;;;6.07;5.25;;;32.30;42.80;;;;;;4993645;28;20529;-78
2021/07/03 08:41:32;;;;;;;5.78;5.07;;;32.30;42.60;;;;;;4986682;28;20491;-82
2021/07/03 08:43:58;;;;;;;5.55;4.53;;;32.20;42.40;;;;;;4991841;28;20174;-79
2021/07/03 08:46:24;;;;;;;4.63;4.28;;;32.30;43.10;;;;;;4997733;28;20091;-80
2021/07/03 08:48:55;;;;;;;5.43;4.88;;;32.80;40.80;;;;;;4997447;28;20604;-81
2021/07/03 08:51:22;;;;;;;6.85;5.20;;;32.90;41.50;;;;;;4976097;28;20034;-80
2021/07/03 08:53:49;;;;;;;6.75;5.95;;;32.50;40.80;;;;;;4943161;28;20450;-80
2021/07/03 08:56:14;;;;;;;5.82;4.93;;;32.10;41.50;;;;;;4968736;28;20026;-80
2021/07/03 08:58:40;;;;;;;6.00;5.47;;;31.90;42.60;;;;;;4962346;28;20656;-81
2021/07/03 09:01:06;;;;;;;6.10;5.43;;;31.90;42.30;;;;;;5016943;28;20037;-83
2021/07/03 09:03:32;;;;;;;5.35;4.85;;;32.00;41.80;;;;;;4947410;28;20035;-84
2021/07/03 09:06:00;;;;;;;5.00;4.45;;;32.20;42.50;;;;;;4979559;28;20022;-82
2021/07/03 09:08:28;;;;;;;5.43;4.93;;;32.10;41.50;;;;;;4985914;28;20467;-82
2021/07/03 09:11:07;;;;;;;5.88;4.50;;;32.20;41.60;;;;;;4981161;28;20616;-85
2021/07/03 09:13:36;;;;;;;5.22;4.13;;;32.50;41.40;;;;;;4980020;28;20038;-81
2021/07/03 09:16:02;;;;;;;3.95;3.65;;;32.90;40.30;;;;;;4999630;28;20097;-82
2021/07/03 09:18:30;;;;;;;4.35;3.85;;;32.60;39.60;;;;;;5002535;28;20155;-84
2021/07/03 09:21:01;;;;;;;4.07;3.78;;;32.80;41.60;;;;;;4968321;28;20029;-83
2021/07/03 09:23:31;;;;;;;4.93;4.53;;;33.40;40.40;;;;;;4983705;28;20065;-82
2021/07/03 09:25:59;;;;;;;6.32;4.20;;;33.50;39.10;;;;;;5000248;28;20273;-83
2021/07/03 09:28:38;;;;;;;4.70;4.30;;;33.30;39.70;;;;;;4982097;28;20036;-82
2021/07/03 09:31:05;;;;;;;7.82;4.10;;;33.10;39.70;;;;;;5003541;28;20030;-81
2021/07/03 09:33:51;;;;;;;5.35;3.92;;;32.90;41.20;;;;;;5001071;28;20081;-81
2021/07/03 09:36:27;;;;;;;4.72;4.32;;;33.10;40.20;;;;;;4997299;28;20490;-81
2021/07/03 09:38:54;;;;;;;5.25;3.95;;;32.40;40.70;;;;;;5004645;28;20015;-83
2021/07/03 09:41:30;;;;;;;4.82;3.83;;;32.20;41.80;;;;;;4976296;28;20042;-82
2021/07/03 09:43:59;;;;;;;4.15;3.17;;;31.80;41.80;;;;;;5003110;28;20033;-84
2021/07/03 09:46:25;;;;;;;4.25;3.85;;;31.60;43.20;;;;;;4985902;28;20162;-82
2021/07/03 09:48:53;;;;;;;4.40;4.00;;;32.00;43.00;;;;;;5009181;28;20112;-81
2021/07/03 09:51:30;;;;;;;4.95;4.43;;;32.30;42.20;;;;;;5008244;28;20049;-82
2021/07/03 09:53:58;;;;;;;5.10;4.55;;;32.10;41.70;;;;;;5004962;28;20038;-84
2021/07/03 09:56:24;;;;;;;5.10;3.55;;;31.60;42.70;;;;;;4985375;28;20026;-82
2021/07/03 09:58:50;;;;;;;3.90;3.03;;;31.40;42.60;;;;;;5000772;28;20037;-82
2021/07/03 10:01:16;;;;;;;5.88;3.45;;;31.40;41.60;;;;;;4987935;28;20034;-83
2021/07/03 10:03:43;;;;;;;2.85;2.55;;;31.70;43.00;;;;;;5002397;28;20030;-83
2021/07/03 10:06:13;;;;;;;3.35;3.05;;;32.10;42.50;;;;;;4984405;28;20182;-82
2021/07/03 10:08:43;;;;;;;4.00;3.10;;;32.30;41.30;;;;;;5001671;28;20085;-82
2021/07/03 10:11:11;;;;;;;5.63;3.63;;;32.20;41.40;;;;;;4990010;28;20382;-82
2021/07/03 10:13:40;;;;;;;3.78;3.40;;;32.10;42.40;;;;;;4992803;28;20364;-83
2021/07/03 10:16:10;;;;;;;4.75;4.25;;;32.20;42.60;;;;;;4989527;28;20034;-83
2021/07/03 10:18:36;;;;;;;4.97;4.47;;;32.20;42.50;;;;;;5025696;28;20111;-84
2021/07/03 10:21:22;;;;;;;3.85;3.45;;;31.90;41.40;;;;;;5004923;28;20637;-83
2021/07/03 10:23:48;;;;;;;4.45;3.35;;;31.60;41.50;;;;;;4997124;28;20088;-81
2021/07/03 10:26:18;;;;;;;3.78;3.13;;;31.40;41.80;;;;;;5002477;28;20433;-83
2021/07/03 10:28:51;;;;;;;3.60;3.30;;;31.10;41.00;;;;;;4966930;28;20061;-84
2021/07/03 10:31:17;;;;;;;3.53;3.10;;;30.80;41.10;;;;;;4981143;28;20038;-80
2021/07/03 10:33:47;;;;;;;3.40;2.92;;;30.50;41.30;;;;;;4976743;28;20094;-85
2021/07/03 10:36:25;;;;;;;4.53;3.38;;;30.30;43.10;;;;;;4997152;28;20023;-83
2021/07/03 10:38:53;;;;;;;4.03;3.72;;;30.00;42.20;;;;;;4995946;28;20137;-83
2021/07/03 10:41:25;;;;;;;3.22;2.92;;;29.80;42.50;;;;;;4988706;28;20038;-85
2021/07/03 10:43:59;;;;;;;3.53;3.22;;;29.70;42.90;;;;;;5000166;28;20042;-82
2021/07/03 10:46:26;;;;;;;3.45;3.15;;;29.80;44.20;;;;;;5016064;28;20116;-84
2021/07/03 10:49:00;;;;;;;3.83;3.22;;;30.20;43.60;;;;;;4989805;28;20120;-88
2021/07/03 10:51:36;;;;;;;4.43;4.03;;;30.30;42.00;;;;;;4984667;28;20030;-84
2021/07/03 10:54:11;;;;;;;5.07;3.08;;;30.40;42.50;;;;;;5007988;28;20046;-87
2021/07/03 10:57:04;;;;;;;4.28;2.92;;;30.60;42.80;;;;;;4992585;28;20041;-87
2021/07/03 10:59:37;;;;;;;3.05;2.50;;;30.60;41.50;;;;;;4982189;28;20027;-89
2021/07/03 11:02:17;;;;;;;3.35;3.00;;;30.70;43.30;;;;;;5003376;28;20029;-88
2021/07/03 11:04:48;;;;;;;3.13;2.88;;;30.90;42.70;;;;;;4999089;28;20041;-89
2021/07/03 11:07:20;;;;;;;3.40;2.03;;;30.80;42.10;;;;;;4981111;28;20509;-88
2021/07/03 11:09:48;;;;;;;3.38;2.33;;;30.50;42.60;;;;;;5002461;28;20478;-89
2021/07/03 11:12:21;;;;;;;2.88;2.40;;;30.50;43.60;;;;;;4986740;28;20113;-83
2021/07/03 11:14:55;;;;;;;2.38;2.17;;;30.60;43.10;;;;;;4982072;28;20038;-87
2021/07/03 11:17:26;;;;;;;2.60;2.40;;;30.70;43.00;;;;;;4991159;28;20038;-85
2021/07/03 11:19:54;;;;;;;2.50;2.30;;;30.50;42.10;;;;;;4994872;28;20026;-88
2021/07/03 11:22:23;;;;;;;2.67;2.47;;;30.30;43.10;;;;;;4983582;28;20022;-83
2021/07/03 11:25:08;;;;;;;2.53;2.33;;;30.40;45.00;;;;;;4984867;28;20470;-84
2021/07/03 11:27:39;;;;;;;2.55;2.35;;;30.50;42.40;;;;;;4998819;28;20026;-82
2021/07/03 11:30:19;;;;;;;3.22;2.20;;;30.50;43.70;;;;;;4994965;28;20033;-83
2021/07/03 11:32:57;;;;;;;2.25;2.05;;;30.50;43.80;;;;;;4999385;28;20038;-83
2021/07/03 11:35:23;;;;;;;2.40;2.20;;;30.50;44.60;;;;;;5017414;28;20076;-84
2021/07/03 11:37:50;;;;;;;3.67;2.20;;;30.60;44.20;;;;;;5000273;28;20036;-81
2021/07/03 11:40:28;;;;;;;2.42;2.10;;;30.60;44.40;;;;;;4976250;28;20236;-81
2021/07/03 11:42:56;;;;;;;3.05;2.47;;;30.60;44.30;;;;;;4986160;28;20428;-81
2021/07/03 11:45:36;;;;;;;3.25;2.88;;;30.40;43.70;;;;;;4982853;28;20060;-80
2021/07/03 11:48:07;;;;;;;3.92;2.60;;;30.30;45.20;;;;;;4991840;28;20034;-88
2021/07/03 11:50:40;;;;;;;2.75;2.55;;;30.20;45.00;;;;;;4990652;28;20041;-90
2021/07/03 11:53:09;;;;;;;2.63;2.10;;;30.00;44.30;;;;;;4983310;28;20022;-89
2021/07/03 11:55:37;;;;;;;3.05;2.50;;;29.90;45.40;;;;;;5002017;28;20094;-88
2021/07/03 11:58:05;;;;;;;3.85;2.70;;;30.00;44.90;;;;;;5003263;28;20037;-89
2021/07/03 12:00:33;;;;;;;10.23;2.47;;;30.00;44.70;;;;;;5003150;28;20030;-87
2021/07/03 12:03:00;;;;;;;2.30;1.98;;;30.00;45.10;;;;;;5010894;28;20467;-90
2021/07/03 12:05:33;;;;;;;3.70;2.72;;;30.00;45.30;;;;;;4967296;28;20030;-87
2021/07/03 12:08:03;;;;;;;2.88;2.67;;;29.90;45.20;;;;;;5001362;28;20053;-89
2021/07/03 12:10:49;;;;;;;3.30;2.50;;;29.90;44.60;;;;;;5007873;28;20030;-88
2021/07/03 12:13:20;;;;;;;4.45;3.00;;;29.70;46.10;;;;;;4996570;28;20038;-82
2021/07/03 12:15:56;;;;;;;2.60;2.40;;;29.80;46.10;;;;;;4988641;28;20033;-82
2021/07/03 12:18:32;;;;;;;3.50;2.92;;;29.90;46.40;;;;;;4978505;28;20026;-83
2021/07/03 12:21:17;;;;;;;3.45;3.15;;;30.00;47.00;;;;;;4994770;28;20073;-82
2021/07/03 12:24:04;;;;;;;2.95;2.63;;;30.10;46.40;;;;;;4994966;28;20506;-83
2021/07/03 12:26:31;;;;;;;3.97;2.80;;;30.10;45.80;;;;;;4990085;28;20034;-83
2021/07/03 12:29:05;;;;;;;4.45;3.28;;;30.10;45.60;;;;;;4996166;28;20114;-83
2021/07/03 12:31:38;;;;;;;3.67;3.13;;;30.10;46.00;;;;;;4979286;28;20031;-88
2021/07/03 12:34:09;;;;;;;4.05;3.17;;;29.90;46.50;;;;;;4983390;28;20457;-90
2021/07/03 12:36:37;;;;;;;4.68;2.80;;;29.80;47.00;;;;;;4989181;28;20117;-89
2021/07/03 12:39:12;;;;;;;3.38;1.80;;;29.70;47.00;;;;;;4987994;28;20045;-89